You are not logged in, Click here to log in
仁川國際機場ICN / RKSI 韓國首都首爾
ICAO: RKSI Country: 韓國首都首爾
Latitude: 37.4602 Longitude: 126.441
Total Arrivals: 67 Total Departures: 60
Latest Arrival: BR2150 (RCTP-RKSI)YunJie. CHEN Latest Departure: CI161 (RKSI-RCTP)YunJie. CHEN
Scenery:
METAR : RKSI 110400Z 03009KT 360V060 9999 SCT040 BKN200 29/14 Q1006 NOSIG

仁川國際機場ICN

You are accessing this site from IP address 34.229.119.29. Virtual Airline. CMS by phpVMS.Website designed by Zumeweb and edited by Theo Bearman.
There is 1 User(s) Online: | Lun Wang | and 13 Guest(s) Online.
All information on this site is for fight simulation purposes only. This site is for flight logging for pilots of Virtual Airline&模擬飛行論壇 FlySim only.